Detall de PIREP

Printer-friendly versionPDF version

[2014/12/26 17:16:00]
Flight IATA:CT1004
Pilot Number:042
Company ICAO:CAT
Aircraft Type:A320/E
PAX:100
Departing Airport: LEIB
Destination Airport: EGPF
Alternate Airport:EPK
Online: No
Route:GODOX UN856 RES UN863 KOKOS UN867 KATHY UL980 MID UM185 OCK UQ3 HEMEL UT420 TNT UN57 POL UN601 RIBEL LANA2A
Flight Level:F360
No Slew and time accel
No pause
Crash detect
Detect pilot in Cockpit between each 30 and 45 minutes
17:16 Zero fuel Weight: 72569 Lbs, Fuel Weight: 42213 Lbs
17:16 VATSIM:LEIB 261700Z 00000KT 9999 FEW025 11/08 Q1029 NOSIG
17:16 VATSIM:EGPF 261650Z AUTO 08004KT 3700 BR BKN002 OVC008 03/03 Q1017
17:28 Parking Brakes off
17:36 Take-off
17:36 Take off Weight: 150850 Lbs
17:36 Wind: 260º @ 000 Knots Heading: 241º
17:36 POS N38º 52´ 18´´ E001º 22´ 13´´
17:36 Gear Up: 138 Knots
17:36 Flaps:3 at 138 Knots
17:37 Flaps:2 at 159 Knots
17:37 Flaps:0 at 200 Knots
17:51 Wind:340º@038 Knots Heading: 353º Ground Speed: 414 Knots Altitude 28930 ft
17:59 TOC
17:59 Fuel Weight: 37827 Lb
18:06 Wind:329º@057 Knots Heading: 352º Ground Speed: 390 Knots Altitude 36433 ft
18:21 Wind:315º@091 Knots Heading: 348º Ground Speed: 369 Knots Altitude 36456 ft
18:36 Wind:313º@102 Knots Heading: 329º Ground Speed: 344 Knots Altitude 36463 ft
18:51 Wind:310º@101 Knots Heading: 318º Ground Speed: 343 Knots Altitude 36433 ft
19:06 Wind:312º@100 Knots Heading: 337º Ground Speed: 353 Knots Altitude 36368 ft
19:21 Wind:310º@096 Knots Heading: 351º Ground Speed: 373 Knots Altitude 36210 ft
19:36 Wind:310º@096 Knots Heading: 353º Ground Speed: 375 Knots Altitude 36010 ft
19:44 TOD
19:44 Fuel Weight: 28959 Lb
19:51 Wind:300º@097 Knots Heading: 006º Ground Speed: 287 Knots Altitude 34694 ft
20:06 Wind:294º@078 Knots Heading: 320º Ground Speed: 248 Knots Altitude 34580 ft
20:18 TOC
20:18 Fuel Weight: 26002 Lb
20:21 Wind:295º@077 Knots Heading: 332º Ground Speed: 370 Knots Altitude 35843 ft
20:35 TOD
20:35 Fuel Weight: 24553 Lb
20:36 Wind:294º@059 Knots Heading: 133º Ground Speed: 523 Knots Altitude 35531 ft
20:51 Wind:279º@033 Knots Heading: 326º Ground Speed: 411 Knots Altitude 25505 ft
21:03 Flaps:1 at 333 Knots
21:05 Flaps:0 at 328 Knots
21:06 Wind:271º@019 Knots Heading: 353º Ground Speed: 414 Knots Altitude 20160 ft
21:17 Gear Down: 195 Knots
21:17 Gear Up: 201 Knots
21:19 Gear Down: 282 Knots
21:19 Gear Up: 278 Knots
21:20 Flaps:1 at 253 Knots
21:21 Wind:253º@007 Knots Heading: 211º Ground Speed: 246 Knots Altitude 5275 ft
21:22 Flaps:3 at 230 Knots
21:23 Gear Down: 216 Knots
21:23 Flaps:4 at 213 Knots
21:23 Flaps:5 at 209 Knots
21:26 TouchDown:Rate -445 ft/min Speed: 149 Knots
21:26 VATSIM:EGPF 262120Z AUTO 23004KT 3300 -RA BKN023 BKN034 02/02 Q1015 REDZ
21:26 Land
21:26 Wind:259º@003 Knots
21:26 Heading: 228º
21:26 Flight Duration: 03:50
21:26 Landing Weight: 128659 Lbs
21:26 POS N55º 52´ 05´´ W004º 26´ 25´´
21:29 Parking brakes on
21:29 Block to Block Duration: 04:01
21:29 Final Fuel: 18985 Lbls
21:29 Spent Fuel: 23227 Lbls
21:29 Flight Length: 1370 NM
21:29 TOD Land Length: 323 NM

Exportar CSV

Powered by Drupal - Modified by Danger4k